Time;durP1;ratioP1;P1;durP2;ratioP2;P2;SDS_P1;SDS_P2;PMS_P1;PMS_P2;Temp;Humidity;BMP_temperature;BMP_pressure;BME280_temperature;BME280_humidity;BME280_pressure;Samples;Min_cycle;Max_cycle;Signal;HPM_P1;HPM_P2
2024/03/17 00:02:15;;;;;;;8.23;2.20;;;5.50;99.90;;;;;;5087032;28;20283;-73
2024/03/17 00:04:42;;;;;;;9.47;2.50;;;5.50;99.90;;;;;;5087060;28;20468;-73
2024/03/17 00:07:09;;;;;;;9.53;1.83;;;5.40;99.90;;;;;;5087227;28;20203;-74
2024/03/17 00:09:36;;;;;;;6.00;2.27;;;5.40;99.90;;;;;;5086987;28;20875;-74
2024/03/17 00:12:02;;;;;;;7.77;2.10;;;5.50;99.90;;;;;;5087274;28;20298;-73
2024/03/17 00:14:29;;;;;;;7.90;2.13;;;5.40;99.90;;;;;;5086746;28;20325;-73
2024/03/17 00:16:55;;;;;;;8.60;2.00;;;5.30;99.90;;;;;;5086441;28;20218;-73
2024/03/17 00:19:24;;;;;;;8.27;2.20;;;5.30;99.90;;;;;;5086971;28;20214;-74
2024/03/17 00:21:50;;;;;;;6.23;1.97;;;5.30;99.90;;;;;;5086652;28;20779;-74
2024/03/17 00:24:19;;;;;;;7.77;2.20;;;5.30;99.90;;;;;;5086772;28;20661;-74
2024/03/17 00:26:45;;;;;;;10.10;2.17;;;5.30;99.90;;;;;;5086479;28;20207;-74
2024/03/17 00:29:12;;;;;;;10.80;1.90;;;5.30;99.90;;;;;;5086853;28;20210;-74
2024/03/17 00:31:38;;;;;;;9.73;1.80;;;5.30;99.90;;;;;;5086711;28;20701;-74
2024/03/17 00:34:05;;;;;;;4.30;1.93;;;5.30;99.90;;;;;;5086653;28;20294;-74
2024/03/17 00:36:31;;;;;;;7.40;1.80;;;5.30;99.90;;;;;;5084903;28;20294;-73
2024/03/17 00:38:58;;;;;;;7.43;2.03;;;5.30;99.90;;;;;;5086565;28;20234;-73
2024/03/17 00:41:25;;;;;;;7.33;2.03;;;5.30;99.90;;;;;;5086212;28;20317;-73
2024/03/17 00:43:52;;;;;;;11.20;2.10;;;5.30;99.90;;;;;;5086109;28;20227;-73
2024/03/17 00:46:19;;;;;;;8.40;2.07;;;5.20;99.90;;;;;;5086534;28;20229;-73
2024/03/17 00:48:48;;;;;;;5.83;1.90;;;5.20;99.90;;;;;;5075984;28;20662;-73
2024/03/17 00:51:14;;;;;;;10.67;2.03;;;5.20;99.90;;;;;;5084745;28;20213;-73
2024/03/17 00:53:41;;;;;;;8.77;1.90;;;5.20;99.90;;;;;;5090184;28;20290;-73
2024/03/17 00:56:07;;;;;;;16.20;2.43;;;5.20;99.90;;;;;;5090408;28;20207;-73
2024/03/17 00:58:35;;;;;;;13.17;2.33;;;5.20;99.90;;;;;;5090519;28;20206;-73
2024/03/17 01:01:02;;;;;;;8.23;2.00;;;5.20;99.90;;;;;;5089708;28;20839;-73
2024/03/17 01:03:29;;;;;;;7.70;2.20;;;5.30;99.90;;;;;;5090343;28;20540;-73
2024/03/17 01:05:54;;;;;;;11.10;2.57;;;5.20;99.90;;;;;;5074749;28;20322;-73
2024/03/17 01:08:22;;;;;;;13.40;2.17;;;5.20;99.90;;;;;;5070538;28;20314;-75
2024/03/17 01:10:49;;;;;;;9.57;2.33;;;5.10;99.90;;;;;;5071496;28;20202;-73
2024/03/17 01:13:16;;;;;;;11.87;2.17;;;5.10;99.90;;;;;;5089505;28;20267;-73
2024/03/17 01:15:44;;;;;;;9.40;2.13;;;5.00;99.90;;;;;;5078837;28;20275;-74
2024/03/17 01:18:11;;;;;;;12.17;2.10;;;5.10;99.90;;;;;;5090127;28;20661;-74
2024/03/17 01:20:38;;;;;;;8.43;2.07;;;5.00;99.90;;;;;;5090565;28;20278;-75
2024/03/17 01:23:05;;;;;;;9.30;2.53;;;4.90;99.90;;;;;;5090449;28;20689;-75
2024/03/17 01:25:35;;;;;;;11.33;2.17;;;4.90;99.90;;;;;;5089745;28;20207;-75
2024/03/17 01:28:02;;;;;;;5.47;1.70;;;4.90;99.90;;;;;;5085043;28;20234;-75
2024/03/17 01:30:29;;;;;;;10.73;2.33;;;4.80;99.90;;;;;;5089887;28;20234;-75
2024/03/17 01:32:57;;;;;;;5.73;1.63;;;4.70;99.90;;;;;;5090104;28;20287;-75
2024/03/17 01:35:23;;;;;;;7.57;2.03;;;4.80;99.90;;;;;;5089869;28;20771;-75
2024/03/17 01:37:50;;;;;;;5.70;1.70;;;4.80;99.90;;;;;;5089551;28;20289;-75
2024/03/17 01:40:17;;;;;;;4.30;1.70;;;4.70;99.90;;;;;;5089545;28;20203;-75
2024/03/17 01:42:43;;;;;;;12.03;2.23;;;4.80;99.90;;;;;;5089582;28;20325;-75
2024/03/17 01:45:26;;;;;;;10.37;2.33;;;4.80;99.90;;;;;;5089155;28;20772;-75
2024/03/17 01:47:53;;;;;;;8.57;2.17;;;4.70;99.90;;;;;;5080954;28;20194;-75
2024/03/17 01:50:24;;;;;;;6.33;2.17;;;4.70;99.90;;;;;;5089545;28;20256;-73
2024/03/17 01:52:53;;;;;;;8.30;1.73;;;4.80;99.90;;;;;;5089793;28;20310;-72
2024/03/17 01:55:20;;;;;;;6.77;2.10;;;4.70;99.90;;;;;;5089467;28;20214;-74
2024/03/17 01:57:47;;;;;;;8.97;1.97;;;4.70;99.90;;;;;;5089017;28;20794;-75
2024/03/17 02:00:14;;;;;;;5.13;1.80;;;4.60;99.90;;;;;;5088695;28;20286;-74
2024/03/17 02:02:41;;;;;;;6.53;1.57;;;4.50;99.90;;;;;;5089179;28;20318;-74
2024/03/17 02:05:08;;;;;;;9.47;2.10;;;4.40;99.90;;;;;;5089436;28;20199;-74
2024/03/17 02:07:36;;;;;;;5.23;1.50;;;4.30;99.90;;;;;;5089228;28;20209;-74
2024/03/17 02:10:03;;;;;;;6.17;1.70;;;4.30;99.90;;;;;;5089096;28;20286;-74
2024/03/17 02:12:31;;;;;;;6.47;1.83;;;4.30;99.90;;;;;;5088634;28;20210;-74
2024/03/17 02:14:57;;;;;;;10.53;2.07;;;4.30;99.90;;;;;;5088479;28;20241;-74
2024/03/17 02:17:25;;;;;;;8.57;2.10;;;4.20;99.90;;;;;;5089328;28;20715;-74
2024/03/17 02:19:52;;;;;;;5.20;1.67;;;4.20;99.90;;;;;;5089312;28;20234;-75
2024/03/17 02:22:20;;;;;;;7.20;2.10;;;4.30;99.90;;;;;;5088905;28;20233;-73
2024/03/17 02:24:47;;;;;;;4.07;1.60;;;4.20;99.90;;;;;;5079081;28;20211;-75
2024/03/17 02:27:13;;;;;;;9.00;2.23;;;4.10;99.90;;;;;;5089226;28;20209;-75
2024/03/17 02:29:40;;;;;;;6.63;1.80;;;4.20;99.90;;;;;;5089579;28;20314;-74
2024/03/17 02:32:07;;;;;;;4.33;1.80;;;4.10;99.90;;;;;;5088987;28;20198;-73
2024/03/17 02:34:36;;;;;;;13.47;2.27;;;4.10;99.90;;;;;;5087290;28;20252;-73
2024/03/17 02:37:03;;;;;;;8.30;1.73;;;4.10;99.90;;;;;;5088768;28;20282;-72
2024/03/17 02:39:33;;;;;;;7.23;2.17;;;4.20;99.90;;;;;;5088348;28;20195;-73
2024/03/17 02:42:01;;;;;;;11.40;2.33;;;4.20;99.90;;;;;;5071232;28;20212;-73
2024/03/17 02:44:28;;;;;;;10.17;1.90;;;4.20;99.90;;;;;;5068154;28;20223;-73
2024/03/17 02:46:55;;;;;;;5.97;1.90;;;4.20;99.90;;;;;;5068649;28;20206;-73
2024/03/17 02:49:22;;;;;;;5.40;1.70;;;4.20;99.90;;;;;;5068314;28;20286;-72
2024/03/17 02:51:49;;;;;;;5.67;1.57;;;4.30;99.90;;;;;;5084658;28;20634;-73
2024/03/17 02:54:16;;;;;;;6.70;2.90;;;4.30;99.90;;;;;;5087979;28;20206;-73
2024/03/17 02:56:43;;;;;;;9.47;2.10;;;4.40;99.90;;;;;;5088245;28;20206;-73
2024/03/17 02:59:10;;;;;;;11.40;2.10;;;4.30;99.90;;;;;;5088328;28;20277;-74
2024/03/17 03:01:37;;;;;;;6.73;1.73;;;4.40;99.90;;;;;;5088337;28;20315;-74
2024/03/17 03:04:05;;;;;;;5.80;1.87;;;4.50;99.90;;;;;;5079702;28;20207;-74
2024/03/17 03:06:32;;;;;;;9.97;1.90;;;4.40;99.90;;;;;;5070304;28;20281;-74
2024/03/17 03:08:59;;;;;;;6.83;1.80;;;4.30;99.90;;;;;;5087336;28;20290;-74
2024/03/17 03:11:25;;;;;;;6.87;1.77;;;4.30;99.90;;;;;;5086549;28;20752;-74
2024/03/17 03:13:54;;;;;;;6.53;1.80;;;4.30;99.90;;;;;;5087350;28;20222;-73
2024/03/17 03:16:20;;;;;;;11.73;2.63;;;4.30;99.90;;;;;;5087648;28;20727;-73
2024/03/17 03:18:47;;;;;;;4.33;1.70;;;4.20;99.90;;;;;;5087391;28;20277;-72
2024/03/17 03:21:14;;;;;;;7.40;2.07;;;4.30;99.90;;;;;;5084730;28;20252;-72
2024/03/17 03:23:41;;;;;;;10.17;2.00;;;4.30;99.90;;;;;;5086885;28;20206;-73
2024/03/17 03:26:09;;;;;;;11.07;1.93;;;4.20;99.90;;;;;;5086986;28;20286;-73
2024/03/17 03:28:37;;;;;;;6.03;1.87;;;4.20;99.90;;;;;;5087449;28;20209;-73
2024/03/17 03:31:06;;;;;;;6.57;1.73;;;4.20;99.90;;;;;;5086823;28;20299;-73
2024/03/17 03:33:33;;;;;;;7.27;1.80;;;4.10;99.90;;;;;;5086717;28;20609;-73
2024/03/17 03:36:07;;;;;;;7.27;1.93;;;4.00;99.90;;;;;;5087428;28;20302;-73
2024/03/17 03:38:34;;;;;;;11.27;2.20;;;4.00;99.90;;;;;;5087605;28;20199;-73
2024/03/17 03:41:07;;;;;;;8.43;2.40;;;4.00;99.90;;;;;;5087009;28;20681;-73
2024/03/17 03:43:34;;;;;;;10.30;1.93;;;3.90;99.90;;;;;;5087408;28;20756;-73
2024/03/17 03:46:02;;;;;;;9.07;2.23;;;4.00;99.90;;;;;;5087303;28;20285;-73
2024/03/17 03:48:30;;;;;;;6.00;2.00;;;4.10;99.90;;;;;;5084099;28;20531;-73
2024/03/17 03:50:57;;;;;;;7.53;2.43;;;4.20;99.90;;;;;;5087106;28;20289;-73
2024/03/17 03:53:24;;;;;;;6.70;2.00;;;4.30;99.90;;;;;;5086957;28;20230;-73
2024/03/17 03:55:51;;;;;;;6.83;1.80;;;4.10;99.90;;;;;;5077105;28;20302;-73
2024/03/17 03:58:17;;;;;;;9.03;1.93;;;4.00;99.90;;;;;;5086091;28;20241;-73
2024/03/17 04:00:45;;;;;;;5.83;1.90;;;3.90;99.90;;;;;;5087140;28;20230;-75
2024/03/17 04:03:12;;;;;;;9.97;2.10;;;3.90;99.90;;;;;;5086998;28;20226;-74
2024/03/17 04:05:40;;;;;;;7.43;2.23;;;4.00;99.90;;;;;;5086801;28;21036;-75
2024/03/17 04:08:08;;;;;;;7.37;2.00;;;4.10;99.90;;;;;;5087190;28;20293;-74
2024/03/17 04:10:35;;;;;;;7.87;1.90;;;4.20;99.90;;;;;;5087085;28;20203;-74
2024/03/17 04:13:02;;;;;;;5.57;1.67;;;4.10;99.90;;;;;;5086452;28;20747;-75
2024/03/17 04:15:29;;;;;;;7.40;2.33;;;4.10;99.90;;;;;;5087002;28;20205;-75
2024/03/17 04:17:56;;;;;;;7.30;1.90;;;4.20;99.90;;;;;;5086867;28;20206;-74
2024/03/17 04:20:23;;;;;;;4.53;1.73;;;4.20;99.90;;;;;;5087153;28;20234;-74
2024/03/17 04:22:51;;;;;;;5.33;1.87;;;4.20;99.90;;;;;;5087138;28;20298;-74
2024/03/17 04:25:18;;;;;;;5.50;1.87;;;4.10;99.90;;;;;;5090998;28;20643;-75
2024/03/17 04:27:45;;;;;;;11.80;2.40;;;4.00;99.90;;;;;;5091249;28;20286;-74
2024/03/17 04:30:13;;;;;;;7.90;2.10;;;4.10;99.90;;;;;;5091069;28;20234;-74
2024/03/17 04:32:40;;;;;;;10.10;2.23;;;4.00;99.90;;;;;;5091100;28;20214;-74
2024/03/17 04:35:08;;;;;;;7.87;2.00;;;4.00;99.90;;;;;;5090952;28;20578;-74
2024/03/17 04:37:38;;;;;;;3.17;1.87;;;4.00;99.90;;;;;;5091038;28;20217;-75
2024/03/17 04:40:10;;;;;;;6.20;1.83;;;3.90;99.90;;;;;;5090600;28;20206;-75
2024/03/17 04:42:38;;;;;;;6.63;1.90;;;3.90;99.90;;;;;;5090752;28;20226;-75
2024/03/17 04:45:09;;;;;;;8.93;1.87;;;3.80;99.90;;;;;;5089124;28;20632;-74
2024/03/17 04:47:36;;;;;;;5.87;2.03;;;3.90;99.90;;;;;;5091263;28;20285;-75
2024/03/17 04:50:04;;;;;;;10.13;2.23;;;4.00;99.90;;;;;;5090950;28;20198;-73
2024/03/17 04:52:30;;;;;;;5.13;1.90;;;3.90;99.90;;;;;;5073582;28;20317;-72
2024/03/17 04:54:57;;;;;;;7.17;2.07;;;4.00;99.90;;;;;;5090478;28;20278;-72
2024/03/17 04:57:25;;;;;;;6.27;2.00;;;4.00;99.90;;;;;;5090380;28;20242;-72
2024/03/17 04:59:52;;;;;;;8.70;1.77;;;3.90;99.90;;;;;;5090639;28;20213;-72
2024/03/17 05:02:18;;;;;;;7.60;2.40;;;4.00;99.90;;;;;;5090407;28;20827;-72
2024/03/17 05:04:45;;;;;;;7.47;2.23;;;4.10;99.90;;;;;;5085905;28;20191;-72
2024/03/17 05:07:12;;;;;;;7.80;2.17;;;4.10;99.90;;;;;;5090220;28;20297;-73
2024/03/17 05:09:39;;;;;;;13.20;2.20;;;4.10;99.90;;;;;;5089812;28;20214;-73
2024/03/17 05:12:07;;;;;;;9.27;2.13;;;4.10;99.90;;;;;;5090207;28;20209;-73
2024/03/17 05:14:35;;;;;;;7.60;2.47;;;4.10;99.90;;;;;;5089561;28;20236;-73
2024/03/17 05:17:01;;;;;;;12.43;2.57;;;4.10;99.90;;;;;;5090387;28;20209;-73
2024/03/17 05:19:28;;;;;;;9.47;2.03;;;4.10;99.90;;;;;;5089707;28;20672;-72
2024/03/17 05:21:55;;;;;;;8.80;2.20;;;4.10;99.90;;;;;;5090028;28;20285;-73
2024/03/17 05:24:22;;;;;;;6.00;1.97;;;4.00;99.90;;;;;;5079475;28;20290;-73
2024/03/17 05:26:49;;;;;;;7.80;1.60;;;3.90;99.90;;;;;;5074978;28;20196;-72
2024/03/17 05:29:16;;;;;;;9.43;2.10;;;4.00;99.90;;;;;;5089864;28;20209;-72
2024/03/17 05:31:45;;;;;;;7.63;1.97;;;4.00;99.90;;;;;;5090030;28;20210;-72
2024/03/17 05:34:11;;;;;;;9.57;2.33;;;4.00;99.90;;;;;;5089520;28;20203;-72
2024/03/17 05:36:38;;;;;;;10.40;2.70;;;4.00;99.90;;;;;;5089007;28;20290;-72
2024/03/17 05:39:05;;;;;;;11.00;2.27;;;4.00;99.90;;;;;;5089642;28;20288;-72
2024/03/17 05:41:32;;;;;;;8.40;2.07;;;4.10;99.90;;;;;;5088559;28;20203;-72
2024/03/17 05:44:03;;;;;;;8.73;1.90;;;4.10;99.90;;;;;;5089266;28;20237;-72
2024/03/17 05:46:30;;;;;;;7.23;2.00;;;4.10;99.90;;;;;;5089124;28;20828;-72
2024/03/17 05:48:58;;;;;;;8.03;2.07;;;4.10;99.90;;;;;;5089619;28;20217;-72
2024/03/17 05:51:27;;;;;;;11.83;2.13;;;4.10;99.90;;;;;;5089544;28;20199;-72
2024/03/17 05:53:55;;;;;;;9.20;2.20;;;4.10;99.90;;;;;;5089040;28;20740;-72
2024/03/17 05:56:22;;;;;;;8.10;2.30;;;4.20;99.90;;;;;;5072924;28;20198;-72
2024/03/17 05:58:49;;;;;;;6.50;2.27;;;4.20;99.90;;;;;;5089067;28;20199;-72
2024/03/17 06:01:16;;;;;;;9.00;2.13;;;4.20;99.90;;;;;;5089159;28;20301;-72
2024/03/17 06:03:43;;;;;;;10.37;2.03;;;4.20;99.90;;;;;;5089081;28;20234;-72
2024/03/17 06:06:11;;;;;;;8.90;1.87;;;4.20;99.90;;;;;;5088782;28;20234;-72
2024/03/17 06:08:38;;;;;;;5.87;1.80;;;4.20;99.90;;;;;;5089149;28;20202;-72
2024/03/17 06:11:06;;;;;;;7.30;2.47;;;4.20;99.90;;;;;;5088884;28;20237;-72
2024/03/17 06:13:33;;;;;;;11.63;2.80;;;4.20;99.90;;;;;;5088423;28;20262;-72
2024/03/17 06:16:01;;;;;;;8.70;2.10;;;4.20;99.90;;;;;;5089152;28;20223;-75
2024/03/17 06:18:29;;;;;;;5.30;1.80;;;4.10;99.90;;;;;;5076310;28;20205;-73
2024/03/17 06:20:58;;;;;;;10.23;1.83;;;4.20;99.90;;;;;;5068909;28;20268;-73
2024/03/17 06:23:28;;;;;;;8.87;2.93;;;4.20;99.90;;;;;;5069696;28;20241;-73
2024/03/17 06:25:56;;;;;;;8.43;2.20;;;4.30;99.90;;;;;;5068565;28;20207;-73
2024/03/17 06:28:23;;;;;;;7.90;2.53;;;4.40;99.90;;;;;;5087314;28;20206;-74
2024/03/17 06:30:59;;;;;;;10.30;2.80;;;4.40;99.90;;;;;;5088985;28;20293;-73
2024/03/17 06:33:26;;;;;;;9.33;2.67;;;4.40;99.90;;;;;;5088729;28;20211;-75
2024/03/17 06:35:53;;;;;;;10.83;2.80;;;4.30;99.90;;;;;;5089147;28;20231;-75
2024/03/17 06:38:20;;;;;;;7.63;2.20;;;4.40;99.90;;;;;;5088230;28;20210;-75
2024/03/17 06:40:52;;;;;;;8.67;2.20;;;4.40;99.90;;;;;;5088306;28;20252;-75
2024/03/17 06:43:20;;;;;;;8.63;2.00;;;4.50;99.90;;;;;;5088470;28;20235;-74
2024/03/17 06:45:56;;;;;;;8.53;2.40;;;4.40;99.90;;;;;;5088245;28;20232;-72
2024/03/17 06:48:23;;;;;;;10.13;2.23;;;4.40;99.90;;;;;;5088648;28;20194;-72
2024/03/17 06:50:51;;;;;;;8.83;2.63;;;4.30;99.90;;;;;;5088682;28;20226;-72
2024/03/17 06:53:18;;;;;;;6.27;1.97;;;4.20;99.90;;;;;;5088718;28;20229;-72
2024/03/17 06:55:46;;;;;;;7.10;2.13;;;4.20;99.90;;;;;;5077755;28;20196;-72
2024/03/17 06:58:14;;;;;;;8.53;2.37;;;4.20;99.90;;;;;;5082324;28;20219;-72
2024/03/17 07:00:43;;;;;;;8.97;2.40;;;4.30;99.90;;;;;;5088468;28;20302;-72
2024/03/17 07:03:10;;;;;;;8.47;1.93;;;4.30;99.90;;;;;;5088236;28;20231;-72
2024/03/17 07:05:37;;;;;;;13.53;2.60;;;4.30;99.90;;;;;;5088337;28;20286;-72
2024/03/17 07:08:05;;;;;;;10.57;2.47;;;4.30;99.90;;;;;;5088080;28;20309;-72
2024/03/17 07:10:32;;;;;;;7.07;2.20;;;4.40;99.90;;;;;;5087765;28;20238;-72
2024/03/17 07:12:59;;;;;;;12.10;2.40;;;4.40;99.90;;;;;;5083973;28;20290;-73
2024/03/17 07:15:27;;;;;;;8.10;2.47;;;4.40;99.90;;;;;;5085985;28;20324;-72
2024/03/17 07:17:54;;;;;;;9.10;2.77;;;4.50;99.90;;;;;;5087412;28;20298;-72
2024/03/17 07:20:21;;;;;;;10.07;2.33;;;4.50;99.90;;;;;;5087821;28;20211;-73
2024/03/17 07:22:50;;;;;;;6.80;2.07;;;4.60;99.90;;;;;;5068688;28;20717;-73
2024/03/17 07:25:17;;;;;;;6.03;1.93;;;4.70;99.90;;;;;;5067211;28;20219;-74
2024/03/17 07:27:44;;;;;;;9.97;2.40;;;4.70;99.90;;;;;;5082456;28;20298;-73
2024/03/17 07:30:15;;;;;;;9.37;2.20;;;4.80;99.90;;;;;;5086862;28;20234;-73
2024/03/17 07:32:43;;;;;;;7.80;3.07;;;4.90;99.90;;;;;;5085044;28;20270;-73
2024/03/17 07:35:10;;;;;;;12.13;2.47;;;4.90;99.90;;;;;;5086913;28;20211;-73
2024/03/17 07:37:36;;;;;;;8.07;2.20;;;4.90;99.90;;;;;;5087561;28;20509;-73
2024/03/17 07:40:06;;;;;;;14.33;2.60;;;4.90;99.90;;;;;;5087124;28;20290;-73
2024/03/17 07:42:33;;;;;;;3.90;2.03;;;4.90;99.90;;;;;;5086740;28;20238;-73
2024/03/17 07:45:00;;;;;;;7.77;1.93;;;5.00;99.90;;;;;;5087251;28;20227;-72
2024/03/17 07:47:35;;;;;;;8.23;1.93;;;5.00;99.90;;;;;;5087354;28;20596;-72
2024/03/17 07:50:05;;;;;;;9.97;2.63;;;5.00;99.90;;;;;;5087758;28;20187;-72
2024/03/17 07:52:32;;;;;;;12.03;2.10;;;5.00;99.90;;;;;;5087197;28;20197;-72
2024/03/17 07:54:59;;;;;;;6.53;2.10;;;5.10;99.90;;;;;;5086630;28;21029;-72
2024/03/17 07:57:26;;;;;;;8.63;2.10;;;5.20;99.90;;;;;;5087093;28;20325;-72
2024/03/17 07:59:53;;;;;;;9.20;2.97;;;5.30;99.90;;;;;;5086666;28;20203;-72
2024/03/17 08:02:20;;;;;;;10.07;2.00;;;5.40;99.90;;;;;;5087199;28;20577;-73
2024/03/17 08:04:47;;;;;;;11.17;2.87;;;5.50;99.90;;;;;;5087389;28;20253;-73
2024/03/17 08:07:15;;;;;;;9.73;2.17;;;5.60;99.90;;;;;;5075513;28;20294;-72
2024/03/17 08:09:42;;;;;;;13.37;1.93;;;5.70;99.90;;;;;;5066788;28;20306;-72
2024/03/17 08:12:09;;;;;;;8.43;2.30;;;5.80;99.90;;;;;;5070094;28;20199;-73
2024/03/17 08:14:36;;;;;;;8.07;2.30;;;6.00;99.90;;;;;;5073314;28;20784;-74
2024/03/17 08:17:06;;;;;;;6.43;2.03;;;6.10;99.90;;;;;;5086391;28;20222;-74
2024/03/17 08:19:32;;;;;;;8.00;1.93;;;6.10;99.90;;;;;;5086286;28;20661;-74
2024/03/17 08:22:00;;;;;;;9.17;2.10;;;6.20;99.90;;;;;;5085934;28;20209;-73
2024/03/17 08:24:29;;;;;;;7.73;3.13;;;6.20;99.90;;;;;;5085644;28;20227;-73
2024/03/17 08:26:56;;;;;;;4.30;1.90;;;6.20;99.90;;;;;;5086156;28;20317;-73
2024/03/17 08:29:23;;;;;;;8.37;2.13;;;6.20;99.90;;;;;;5086246;28;20207;-72
2024/03/17 08:31:50;;;;;;;12.73;2.50;;;6.30;99.90;;;;;;5085769;28;20665;-71
2024/03/17 08:34:17;;;;;;;6.57;2.20;;;6.40;99.90;;;;;;5086116;28;20665;-72
2024/03/17 08:36:43;;;;;;;6.27;1.90;;;6.60;99.90;;;;;;5086140;28;20294;-72
2024/03/17 08:39:11;;;;;;;6.77;1.80;;;6.50;99.90;;;;;;5086068;28;20204;-71
2024/03/17 08:41:39;;;;;;;7.33;1.67;;;6.70;99.90;;;;;;5085617;28;20207;-73
2024/03/17 08:44:06;;;;;;;8.87;1.73;;;6.90;99.90;;;;;;5085929;28;20599;-72
2024/03/17 08:46:33;;;;;;;7.57;2.20;;;7.00;99.90;;;;;;5083293;28;20206;-72
2024/03/17 08:49:00;;;;;;;6.77;1.70;;;7.20;99.90;;;;;;5086085;28;20202;-72
2024/03/17 08:51:27;;;;;;;8.83;2.97;;;7.40;99.90;;;;;;5086067;28;20281;-73
2024/03/17 08:53:54;;;;;;;8.53;2.30;;;7.40;99.90;;;;;;5078212;28;20285;-73
2024/03/17 08:56:23;;;;;;;5.90;1.90;;;7.60;99.90;;;;;;5085829;28;20297;-73
2024/03/17 08:58:51;;;;;;;6.03;2.00;;;7.60;99.90;;;;;;5084273;28;20569;-74
2024/03/17 09:01:18;;;;;;;8.70;2.33;;;7.60;99.90;;;;;;5085489;28;20191;-72
2024/03/17 09:03:45;;;;;;;7.57;1.93;;;7.60;99.90;;;;;;5086147;28;20234;-72
2024/03/17 09:06:18;;;;;;;5.17;1.50;;;7.60;99.90;;;;;;5085291;28;20222;-73
2024/03/17 09:08:45;;;;;;;10.27;2.00;;;7.30;99.90;;;;;;5085560;28;20650;-73
2024/03/17 09:11:14;;;;;;;7.40;1.63;;;7.40;99.90;;;;;;5087528;28;20256;-73
2024/03/17 09:13:41;;;;;;;7.17;1.50;;;7.60;99.90;;;;;;5088814;28;20343;-73
2024/03/17 09:16:11;;;;;;;5.40;1.97;;;7.90;99.90;;;;;;5087282;28;20207;-73
2024/03/17 09:18:38;;;;;;;3.40;1.30;;;8.00;99.90;;;;;;5088245;28;20241;-73
2024/03/17 09:21:07;;;;;;;8.80;1.60;;;8.00;99.90;;;;;;5088678;28;20213;-73
2024/03/17 09:23:34;;;;;;;5.30;1.70;;;7.80;99.90;;;;;;5088493;28;20231;-73
2024/03/17 09:26:03;;;;;;;5.50;1.73;;;7.90;99.90;;;;;;5087221;28;20257;-72
2024/03/17 09:28:30;;;;;;;6.63;1.50;;;8.10;99.90;;;;;;5086683;28;20268;-73
2024/03/17 09:30:58;;;;;;;6.27;2.20;;;8.20;99.90;;;;;;5087431;28;20623;-73
2024/03/17 09:33:28;;;;;;;3.97;1.73;;;8.20;99.90;;;;;;5086952;28;20209;-72
2024/03/17 09:35:57;;;;;;;4.27;1.27;;;8.20;99.90;;;;;;5087606;28;20199;-73
2024/03/17 09:38:24;;;;;;;4.17;1.40;;;8.20;99.90;;;;;;5085453;28;20211;-73
2024/03/17 09:40:52;;;;;;;4.30;1.47;;;8.20;99.90;;;;;;5086292;28;20234;-73
2024/03/17 09:43:20;;;;;;;5.43;1.80;;;8.20;99.90;;;;;;5088765;28;20276;-73
2024/03/17 09:45:47;;;;;;;4.43;1.80;;;8.00;99.90;;;;;;5089588;28;20202;-72
2024/03/17 09:48:17;;;;;;;5.63;1.50;;;7.90;99.90;;;;;;5088455;28;20215;-72
2024/03/17 09:50:50;;;;;;;5.87;1.90;;;8.00;99.90;;;;;;5089344;28;20211;-73
2024/03/17 09:53:19;;;;;;;3.83;1.60;;;8.20;99.90;;;;;;5089019;28;20195;-73
2024/03/17 09:55:45;;;;;;;5.60;1.50;;;8.20;99.90;;;;;;5088935;28;20571;-73
2024/03/17 09:58:17;;;;;;;4.17;1.57;;;8.30;99.90;;;;;;5088912;28;20669;-72
2024/03/17 10:00:44;;;;;;;4.87;1.50;;;8.40;99.90;;;;;;5088705;28;20210;-73
2024/03/17 10:03:12;;;;;;;3.87;1.50;;;8.40;99.90;;;;;;5087995;28;20301;-73
2024/03/17 10:05:39;;;;;;;5.83;1.23;;;8.30;99.90;;;;;;5088263;28;20287;-73
2024/03/17 10:08:22;;;;;;;3.73;1.23;;;8.50;99.90;;;;;;5088655;28;20211;-73
2024/03/17 10:10:53;;;;;;;6.37;1.60;;;8.70;99.90;;;;;;5087198;28;20206;-73
2024/03/17 10:13:21;;;;;;;5.63;1.93;;;8.90;99.90;;;;;;5087217;28;20582;-73
2024/03/17 10:15:50;;;;;;;5.97;1.60;;;9.00;99.90;;;;;;5082249;28;20619;-73
2024/03/17 10:18:23;;;;;;;10.67;1.93;;;9.00;99.90;;;;;;5087332;28;20203;-73
2024/03/17 10:20:54;;;;;;;6.93;1.70;;;9.00;99.90;;;;;;5084193;28;20210;-72
2024/03/17 10:23:23;;;;;;;6.90;2.43;;;9.00;99.90;;;;;;5086469;28;20203;-73
2024/03/17 10:25:50;;;;;;;4.70;2.03;;;8.90;99.90;;;;;;5085001;28;20230;-73
2024/03/17 10:28:20;;;;;;;4.87;1.90;;;8.80;99.90;;;;;;5087078;28;20213;-73
2024/03/17 10:30:59;;;;;;;3.23;1.87;;;8.80;99.90;;;;;;5087375;28;20227;-73
2024/03/17 10:33:27;;;;;;;4.17;1.63;;;8.70;99.90;;;;;;5087584;28;20653;-73
2024/03/17 10:36:05;;;;;;;5.00;1.60;;;8.60;99.90;;;;;;5086951;28;20206;-73
2024/03/17 10:38:34;;;;;;;4.53;1.80;;;8.50;99.90;;;;;;5084865;28;20985;-73
2024/03/17 10:41:02;;;;;;;4.30;1.47;;;8.60;99.90;;;;;;5087341;28;20202;-73
2024/03/17 10:43:30;;;;;;;8.87;2.00;;;8.60;99.90;;;;;;5084412;28;20276;-73
2024/03/17 10:45:59;;;;;;;4.13;1.60;;;9.00;99.90;;;;;;5086966;28;20231;-73
2024/03/17 10:48:31;;;;;;;5.03;2.07;;;8.90;99.90;;;;;;5087689;28;20325;-73
2024/03/17 10:51:02;;;;;;;5.53;1.70;;;8.90;99.90;;;;;;5087945;28;20190;-73
2024/03/17 10:53:31;;;;;;;5.47;1.80;;;8.90;99.90;;;;;;5085158;28;20310;-73
2024/03/17 10:56:08;;;;;;;6.43;1.80;;;9.00;99.90;;;;;;5087697;28;20278;-73
2024/03/17 10:58:37;;;;;;;5.73;1.93;;;9.30;99.90;;;;;;5083735;28;20677;-73
2024/03/17 11:01:05;;;;;;;7.27;1.80;;;9.50;99.90;;;;;;5088065;28;20400;-73
2024/03/17 11:03:33;;;;;;;6.60;2.20;;;9.30;99.90;;;;;;5088190;28;20292;-73
2024/03/17 11:06:03;;;;;;;5.30;1.93;;;9.20;99.90;;;;;;5088135;28;20234;-73
2024/03/17 11:08:32;;;;;;;5.33;1.50;;;9.00;99.90;;;;;;5088027;28;20278;-73
2024/03/17 11:11:02;;;;;;;6.27;1.60;;;8.90;99.90;;;;;;5088214;28;20225;-73
2024/03/17 11:13:30;;;;;;;4.33;1.77;;;9.10;99.90;;;;;;5087827;28;20262;-73
2024/03/17 11:15:58;;;;;;;3.70;1.40;;;9.50;99.90;;;;;;5087420;28;20202;-73
2024/03/17 11:18:41;;;;;;;5.70;1.90;;;9.70;99.90;;;;;;5087437;28;20665;-72
2024/03/17 11:21:20;;;;;;;4.33;1.50;;;9.80;99.90;;;;;;5067836;28;20283;-73
2024/03/17 11:23:57;;;;;;;4.20;1.50;;;10.10;99.90;;;;;;5081865;28;20547;-73
2024/03/17 11:26:30;;;;;;;5.20;1.63;;;10.40;99.90;;;;;;5087481;28;20207;-73
2024/03/17 11:28:58;;;;;;;5.33;1.50;;;10.40;99.90;;;;;;5087788;28;20298;-73
2024/03/17 11:31:35;;;;;;;7.53;1.90;;;10.00;99.90;;;;;;5087494;28;20283;-73
2024/03/17 11:34:03;;;;;;;6.07;1.70;;;10.10;99.90;;;;;;5086921;28;20209;-73
2024/03/17 11:36:38;;;;;;;3.37;1.53;;;10.00;99.90;;;;;;5086203;28;20203;-73
2024/03/17 11:39:06;;;;;;;5.07;1.57;;;9.70;99.90;;;;;;5086474;28;20220;-73
2024/03/17 11:41:48;;;;;;;3.20;1.50;;;9.70;99.90;;;;;;5086941;28;20264;-73
2024/03/17 11:44:18;;;;;;;6.90;1.70;;;9.70;99.90;;;;;;5084304;28;20330;-73
2024/03/17 11:46:45;;;;;;;3.13;1.40;;;9.60;99.90;;;;;;5086932;28;20621;-73
2024/03/17 11:49:20;;;;;;;4.27;1.10;;;9.50;99.90;;;;;;5087186;28;20322;-73
2024/03/17 11:51:47;;;;;;;2.87;0.97;;;9.70;99.90;;;;;;5087123;28;20646;-73
2024/03/17 11:54:18;;;;;;;1.93;0.93;;;9.80;99.90;;;;;;5086828;28;20307;-73
2024/03/17 11:56:48;;;;;;;4.67;1.50;;;9.70;99.90;;;;;;5087052;28;20222;-73
2024/03/17 11:59:17;;;;;;;3.90;1.27;;;9.50;99.90;;;;;;5087087;28;20641;-73
2024/03/17 12:01:45;;;;;;;2.70;1.33;;;9.40;99.90;;;;;;5086714;28;20677;-73
2024/03/17 12:04:12;;;;;;;2.87;1.13;;;9.50;99.90;;;;;;5087015;28;20321;-73
2024/03/17 12:06:39;;;;;;;3.70;1.00;;;9.40;99.90;;;;;;5086766;28;20584;-73
2024/03/17 12:09:09;;;;;;;2.47;1.30;;;9.30;99.90;;;;;;5086777;28;20293;-73
2024/03/17 12:11:37;;;;;;;3.20;1.57;;;9.30;99.90;;;;;;5086833;28;20218;-73
2024/03/17 12:14:16;;;;;;;3.13;1.23;;;9.30;99.90;;;;;;5086621;28;20234;-73
2024/03/17 12:16:54;;;;;;;3.63;1.37;;;9.50;99.90;;;;;;5085000;28;20684;-73
2024/03/17 12:19:21;;;;;;;3.50;1.50;;;10.10;99.90;;;;;;5086282;28;20252;-73
2024/03/17 12:21:50;;;;;;;3.97;1.47;;;10.60;99.90;;;;;;5086508;28;20293;-73
2024/03/17 12:24:18;;;;;;;2.87;1.20;;;11.10;99.90;;;;;;5086489;28;20213;-73
2024/03/17 12:26:45;;;;;;;3.07;1.60;;;11.50;99.90;;;;;;5086686;28;20272;-73
2024/03/17 12:29:27;;;;;;;1.67;1.00;;;11.80;99.90;;;;;;5086681;28;20202;-73
2024/03/17 12:31:56;;;;;;;2.93;1.40;;;12.20;99.90;;;;;;5086580;28;20210;-73
2024/03/17 12:34:24;;;;;;;3.30;1.43;;;12.50;99.90;;;;;;5086509;28;20238;-73
2024/03/17 12:36:52;;;;;;;3.80;1.43;;;12.70;99.90;;;;;;5086483;28;20218;-73
2024/03/17 12:39:19;;;;;;;2.83;1.33;;;12.50;99.90;;;;;;5086175;28;20668;-73
2024/03/17 12:41:47;;;;;;;3.77;1.23;;;12.20;99.90;;;;;;5085418;28;20262;-73
2024/03/17 12:44:22;;;;;;;3.47;1.27;;;12.00;99.90;;;;;;5086897;28;20226;-74
2024/03/17 12:46:56;;;;;;;1.43;0.90;;;11.90;99.90;;;;;;5090950;28;20206;-73
2024/03/17 12:49:24;;;;;;;4.33;1.37;;;12.00;99.90;;;;;;5090874;28;20198;-73
2024/03/17 12:51:51;;;;;;;3.17;1.47;;;12.20;99.90;;;;;;5090285;28;20228;-73
2024/03/17 12:54:20;;;;;;;2.73;1.17;;;12.40;99.90;;;;;;5090742;28;20294;-72
2024/03/17 13:02:27;;;;;;;3.77;1.40;;;12.50;98.90;;;;;;5090417;28;20190;-74
2024/03/17 13:05:17;;;;;;;3.50;1.20;;;12.00;99.20;;;;;;5090664;28;20215;-74
2024/03/17 13:07:46;;;;;;;3.87;1.40;;;11.60;99.90;;;;;;5090264;28;20206;-73